Time;durP1;ratioP1;P1;durP2;ratioP2;P2;SDS_P1;SDS_P2;PMS_P1;PMS_P2;Temp;Humidity;BMP_temperature;BMP_pressure;BME280_temperature;BME280_humidity;BME280_pressure;Samples;Min_cycle;Max_cycle;Signal;HPM_P1;HPM_P2
2023/07/05 00:00:00;;;;;;;20.23;10.93;;;;;;;;;;5054888;28;20663;-68
2023/07/05 00:02:26;;;;;;;25.23;12.70;;;;;;;;;;5054583;28;20643;-69
2023/07/05 00:04:52;;;;;;;26.37;13.40;;;;;;;;;;5053998;28;20175;-69
2023/07/05 00:07:18;;;;;;;22.47;12.30;;;;;;;;;;5053883;28;20675;-68
2023/07/05 00:09:44;;;;;;;20.40;11.77;;;;;;;;;;5054114;28;20171;-69
2023/07/05 00:12:10;;;;;;;19.97;12.23;;;;;;;;;;5053673;28;20174;-69
2023/07/05 00:14:36;;;;;;;37.00;17.13;;;;;;;;;;5053696;28;20551;-69
2023/07/05 00:17:02;;;;;;;39.57;18.63;;;;;;;;;;5053560;28;20238;-69
2023/07/05 00:19:28;;;;;;;67.70;26.43;;;;;;;;;;5053567;28;20179;-68
2023/07/05 00:21:54;;;;;;;83.83;31.80;;;;;;;;;;5053554;28;20640;-69
2023/07/05 00:24:20;;;;;;;83.70;32.87;;;;;;;;;;5053817;28;20206;-69
2023/07/05 00:26:46;;;;;;;127.43;48.77;;;;;;;;;;5035587;28;20202;-70
2023/07/05 00:29:12;;;;;;;36.53;18.17;;;;;;;;;;5053812;28;20175;-69
2023/07/05 00:31:38;;;;;;;41.37;17.40;;;;;;;;;;5035324;28;20273;-70
2023/07/05 00:34:04;;;;;;;23.27;11.83;;;;;;;;;;5053696;28;20179;-70
2023/07/05 00:36:30;;;;;;;21.57;12.17;;;;;;;;;;5053626;28;20209;-70
2023/07/05 00:38:56;;;;;;;16.17;10.50;;;;;;;;;;5054656;28;20179;-69
2023/07/05 00:41:22;;;;;;;16.77;9.63;;;;;;;;;;5054137;28;20231;-70
2023/07/05 00:43:48;;;;;;;13.43;9.07;;;;;;;;;;5054014;28;20261;-70
2023/07/05 00:46:24;;;;;;;16.83;9.97;;;;;;;;;;5054154;28;20579;-69
2023/07/05 00:49:04;;;;;;;22.53;11.70;;;;;;;;;;5054223;28;20624;-70
2023/07/05 00:51:34;;;;;;;17.53;11.30;;;;;;;;;;5036489;28;20253;-70
2023/07/05 00:54:01;;;;;;;20.53;12.33;;;;;;;;;;5053725;28;20185;-69
2023/07/05 00:56:29;;;;;;;20.60;11.20;;;;;;;;;;5053834;28;20209;-69
2023/07/05 00:58:56;;;;;;;21.03;12.13;;;;;;;;;;5054110;28;20178;-69
2023/07/05 01:01:22;;;;;;;21.50;12.03;;;;;;;;;;5035652;28;20186;-70
2023/07/05 01:03:50;;;;;;;12.73;8.47;;;;;;;;;;5035279;28;20202;-69
2023/07/05 01:06:16;;;;;;;15.97;9.80;;;;;;;;;;5053544;28;20194;-70
2023/07/05 01:08:42;;;;;;;21.10;10.93;;;;;;;;;;5053650;28;20174;-69
2023/07/05 01:11:32;;;;;;;25.70;12.10;;;;;;;;;;5053252;28;20641;-69
2023/07/05 01:14:03;;;;;;;22.30;17.17;;;;;;;;;;5028994;28;20220;-69
2023/07/05 01:16:29;;;;;;;31.87;21.73;;;;;;;;;;5053444;28;20240;-69
2023/07/05 01:19:21;;;;;;;25.30;19.93;;;;;;;;;;5053889;28;20234;-70
2023/07/05 01:21:50;;;;;;;22.67;17.73;;;;;;;;;;5049887;28;20213;-69
2023/07/05 01:24:22;;;;;;;21.93;14.60;;;;;;;;;;5053514;28;20206;-70
2023/07/05 01:27:24;;;;;;;17.70;12.53;;;;;;;;;;5053504;28;20202;-69
2023/07/05 01:30:02;;;;;;;13.17;9.40;;;;;;;;;;5036032;28;20170;-69
2023/07/05 01:32:31;;;;;;;13.80;9.33;;;;;;;;;;5052967;28;20178;-69
2023/07/05 01:34:59;;;;;;;11.43;8.57;;;;;;;;;;5053055;28;20175;-69
2023/07/05 01:37:37;;;;;;;9.03;7.13;;;;;;;;;;5052936;28;20241;-70
2023/07/05 01:40:31;;;;;;;14.57;8.77;;;;;;;;;;5053304;28;20600;-69
2023/07/05 01:43:10;;;;;;;11.37;8.07;;;;;;;;;;5053929;28;20213;-69
2023/07/05 01:45:54;;;;;;;16.80;8.57;;;;;;;;;;5056649;28;20205;-69
2023/07/05 01:48:29;;;;;;;10.73;7.90;;;;;;;;;;5057064;28;20209;-69
2023/07/05 01:51:00;;;;;;;12.13;8.27;;;;;;;;;;5056787;28;20166;-70
2023/07/05 01:53:29;;;;;;;9.37;7.03;;;;;;;;;;5056355;28;20269;-70
2023/07/05 01:56:02;;;;;;;11.20;7.50;;;;;;;;;;5038566;28;20699;-70
2023/07/05 01:58:29;;;;;;;10.23;6.73;;;;;;;;;;5038385;28;20277;-70
2023/07/05 02:00:57;;;;;;;11.87;7.17;;;;;;;;;;5056439;28;20236;-70
2023/07/05 02:03:24;;;;;;;9.87;7.27;;;;;;;;;;5056567;28;20730;-70
2023/07/05 02:05:50;;;;;;;9.77;7.30;;;;;;;;;;5056041;28;20198;-70
2023/07/05 02:08:16;;;;;;;10.53;7.10;;;;;;;;;;5056009;28;20179;-69
2023/07/05 02:10:42;;;;;;;11.27;7.80;;;;;;;;;;5056018;28;20240;-70
2023/07/05 02:13:10;;;;;;;11.70;7.37;;;;;;;;;;5056543;28;20175;-69
2023/07/05 02:15:38;;;;;;;9.33;7.67;;;;;;;;;;5037777;28;20225;-69
2023/07/05 02:18:04;;;;;;;13.90;7.47;;;;;;;;;;5055924;28;20554;-69
2023/07/05 02:20:31;;;;;;;13.23;7.33;;;;;;;;;;5037986;28;20194;-69
2023/07/05 02:22:57;;;;;;;13.90;8.43;;;;;;;;;;5055766;28;20198;-69
2023/07/05 02:25:23;;;;;;;12.77;7.93;;;;;;;;;;5055619;28;20209;-70
2023/07/05 02:27:49;;;;;;;11.33;8.73;;;;;;;;;;5056044;28;20184;-70
2023/07/05 02:30:17;;;;;;;12.53;7.70;;;;;;;;;;5055645;28;20240;-69
2023/07/05 02:32:44;;;;;;;8.87;6.27;;;;;;;;;;5037712;28;20194;-69
2023/07/05 02:35:10;;;;;;;6.10;4.83;;;;;;;;;;5056597;28;20174;-69
2023/07/05 02:37:36;;;;;;;5.73;3.87;;;;;;;;;;5068317;28;20189;-70
2023/07/05 02:40:03;;;;;;;7.38;4.53;;;;;;;;;;5047427;28;20938;-70
2023/07/05 02:42:29;;;;;;;7.03;4.20;;;;;;;;;;5038504;28;20588;-70
2023/07/05 02:44:55;;;;;;;6.30;3.83;;;;;;;;;;5056072;28;20351;-70
2023/07/05 02:47:22;;;;;;;3.40;3.10;;;;;;;;;;5055359;28;20186;-71
2023/07/05 02:49:48;;;;;;;5.53;4.10;;;;;;;;;;5055453;28;20170;-71
2023/07/05 02:52:14;;;;;;;4.10;3.63;;;;;;;;;;5055319;28;20216;-71
2023/07/05 02:54:40;;;;;;;5.27;3.40;;;;;;;;;;5036703;28;20702;-70
2023/07/05 02:57:06;;;;;;;5.17;3.33;;;;;;;;;;5055592;28;20202;-71
2023/07/05 02:59:32;;;;;;;3.87;3.30;;;;;;;;;;5037416;28;20179;-71
2023/07/05 03:01:58;;;;;;;4.60;3.60;;;;;;;;;;5055389;28;20175;-71
2023/07/05 03:04:24;;;;;;;5.47;3.90;;;;;;;;;;5055059;28;20742;-71
2023/07/05 03:06:50;;;;;;;4.67;3.10;;;;;;;;;;5055116;28;20199;-71
2023/07/05 03:09:18;;;;;;;4.47;3.67;;;;;;;;;;5037290;28;20179;-71
2023/07/05 03:11:44;;;;;;;5.33;2.63;;;;;;;;;;5054959;28;20714;-71
2023/07/05 03:14:09;;;;;;;3.17;2.67;;;;;;;;;;5055218;28;20182;-71
2023/07/05 03:16:35;;;;;;;3.37;2.50;;;;;;;;;;5036765;28;20225;-71
2023/07/05 03:19:01;;;;;;;4.67;2.20;;;;;;;;;;5054909;28;20332;-71
2023/07/05 03:21:27;;;;;;;2.53;2.10;;;;;;;;;;5054664;28;20174;-71
2023/07/05 03:23:53;;;;;;;2.87;2.30;;;;;;;;;;5054917;28;20198;-71
2023/07/05 03:26:19;;;;;;;3.00;2.37;;;;;;;;;;5036717;28;20202;-71
2023/07/05 03:28:45;;;;;;;2.47;2.23;;;;;;;;;;5055119;28;20236;-71
2023/07/05 03:31:12;;;;;;;4.03;2.10;;;;;;;;;;5054675;28;20269;-71
2023/07/05 03:33:39;;;;;;;3.07;2.27;;;;;;;;;;5054919;28;20269;-71
2023/07/05 03:36:05;;;;;;;3.07;2.53;;;;;;;;;;5054938;28;20562;-71
2023/07/05 03:38:31;;;;;;;3.53;2.00;;;;;;;;;;5054475;28;20178;-71
2023/07/05 03:41:02;;;;;;;4.47;2.63;;;;;;;;;;5054390;28;20648;-71
2023/07/05 03:43:29;;;;;;;3.07;2.10;;;;;;;;;;5054409;28;20206;-70
2023/07/05 03:45:55;;;;;;;4.57;2.77;;;;;;;;;;5054121;28;20194;-71
2023/07/05 03:48:21;;;;;;;3.33;2.60;;;;;;;;;;5036792;28;20194;-71
2023/07/05 03:50:48;;;;;;;7.10;3.07;;;;;;;;;;5055029;28;20717;-70
2023/07/05 03:53:14;;;;;;;8.80;3.20;;;;;;;;;;5036243;28;20641;-71
2023/07/05 03:55:40;;;;;;;4.60;2.97;;;;;;;;;;5054021;28;20241;-70
2023/07/05 03:58:06;;;;;;;3.17;2.87;;;;;;;;;;5054172;28;20194;-70
2023/07/05 04:00:32;;;;;;;5.23;3.17;;;;;;;;;;5036132;28;20213;-70
2023/07/05 04:02:58;;;;;;;5.93;2.70;;;;;;;;;;5054606;28;20248;-70
2023/07/05 04:05:24;;;;;;;2.83;2.60;;;;;;;;;;5053385;28;20198;-70
2023/07/05 04:07:50;;;;;;;5.13;3.07;;;;;;;;;;5035606;28;20178;-70
2023/07/05 04:10:16;;;;;;;3.97;2.80;;;;;;;;;;5054161;28;20713;-71
2023/07/05 04:12:42;;;;;;;5.13;3.47;;;;;;;;;;5053796;28;20174;-70
2023/07/05 04:15:08;;;;;;;5.37;3.10;;;;;;;;;;5035565;28;20182;-71
2023/07/05 04:17:34;;;;;;;4.43;3.17;;;;;;;;;;5053734;28;20233;-70
2023/07/05 04:20:00;;;;;;;5.90;3.37;;;;;;;;;;5035727;28;20186;-71
2023/07/05 04:22:26;;;;;;;3.97;3.17;;;;;;;;;;5053539;28;20189;-70
2023/07/05 04:24:52;;;;;;;3.57;2.90;;;;;;;;;;5035711;28;20554;-70
2023/07/05 04:27:18;;;;;;;3.43;2.87;;;;;;;;;;5035711;28;20699;-71
2023/07/05 04:29:44;;;;;;;4.50;2.97;;;;;;;;;;5053799;28;20186;-70
2023/07/05 04:32:10;;;;;;;3.53;3.10;;;;;;;;;;5035651;28;20175;-71
2023/07/05 04:34:36;;;;;;;6.00;3.40;;;;;;;;;;5035505;28;20193;-70
2023/07/05 04:37:02;;;;;;;7.00;3.40;;;;;;;;;;5053338;28;20195;-70
2023/07/05 04:39:28;;;;;;;6.73;4.13;;;;;;;;;;5035430;28;20269;-70
2023/07/05 04:41:55;;;;;;;5.07;3.67;;;;;;;;;;5053304;28;20171;-70
2023/07/05 04:44:21;;;;;;;5.37;3.53;;;;;;;;;;5053235;28;20195;-70
2023/07/05 04:46:47;;;;;;;5.37;3.90;;;;;;;;;;5035356;28;20202;-70
2023/07/05 04:49:13;;;;;;;7.60;4.00;;;;;;;;;;5053200;28;20170;-70
2023/07/05 04:51:39;;;;;;;6.50;3.80;;;;;;;;;;5053390;28;20257;-70
2023/07/05 04:54:05;;;;;;;3.93;2.97;;;;;;;;;;5053196;28;20178;-71
2023/07/05 04:56:31;;;;;;;3.60;3.07;;;;;;;;;;5053199;28;20206;-70
2023/07/05 04:58:57;;;;;;;4.77;3.77;;;;;;;;;;5053239;28;20551;-70
2023/07/05 05:01:23;;;;;;;4.80;3.70;;;;;;;;;;5053136;28;20182;-71
2023/07/05 05:03:49;;;;;;;4.60;3.40;;;;;;;;;;5053151;28;20202;-71
2023/07/05 05:06:15;;;;;;;4.00;3.07;;;;;;;;;;5035079;28;20705;-70
2023/07/05 05:08:41;;;;;;;4.10;3.60;;;;;;;;;;5053588;28;20174;-70
2023/07/05 05:11:07;;;;;;;4.60;3.50;;;;;;;;;;5053010;28;20189;-70
2023/07/05 05:13:34;;;;;;;4.70;4.20;;;;;;;;;;5053832;28;20182;-70
2023/07/05 05:16:00;;;;;;;5.10;3.97;;;;;;;;;;5052727;28;20214;-70
2023/07/05 05:18:27;;;;;;;5.50;3.83;;;;;;;;;;5045045;28;20189;-71
2023/07/05 05:20:53;;;;;;;5.50;3.77;;;;;;;;;;5071993;28;20201;-71
2023/07/05 05:23:19;;;;;;;6.10;4.10;;;;;;;;;;5068749;28;20206;-70
2023/07/05 05:25:45;;;;;;;6.10;4.00;;;;;;;;;;5039344;28;20315;-70
2023/07/05 05:28:12;;;;;;;4.10;3.70;;;;;;;;;;5039208;28;20186;-70
2023/07/05 05:30:38;;;;;;;6.90;3.97;;;;;;;;;;5056849;28;20174;-70
2023/07/05 05:33:04;;;;;;;4.60;3.50;;;;;;;;;;5056822;28;20182;-71
2023/07/05 05:35:31;;;;;;;5.07;3.33;;;;;;;;;;5038758;28;20224;-70
2023/07/05 05:37:57;;;;;;;6.30;3.40;;;;;;;;;;5057197;28;20182;-70
2023/07/05 05:40:23;;;;;;;7.63;3.70;;;;;;;;;;5056803;28;20189;-70
2023/07/05 05:42:49;;;;;;;5.63;3.40;;;;;;;;;;5075157;22;20258;-68
2023/07/05 05:45:15;;;;;;;6.93;3.43;;;;;;;;;;5018712;28;20209;-68
2023/07/05 05:47:41;;;;;;;6.37;3.57;;;;;;;;;;5018733;28;20201;-68
2023/07/05 05:50:07;;;;;;;11.93;6.63;;;;;;;;;;5018580;28;20244;-68
2023/07/05 05:52:33;;;;;;;16.00;10.33;;;;;;;;;;5018544;28;20644;-68
2023/07/05 05:55:00;;;;;;;12.40;7.80;;;;;;;;;;5036466;28;20183;-68
2023/07/05 05:57:25;;;;;;;10.30;7.67;;;;;;;;;;5018508;28;20394;-68
2023/07/05 05:59:53;;;;;;;7.03;4.63;;;;;;;;;;5037844;28;20707;-68
2023/07/05 06:02:19;;;;;;;10.37;4.30;;;;;;;;;;5035977;28;20190;-68
2023/07/05 06:04:45;;;;;;;5.70;3.90;;;;;;;;;;5018457;28;20657;-68
2023/07/05 06:07:11;;;;;;;6.13;3.77;;;;;;;;;;5018414;28;20229;-68
2023/07/05 06:09:38;;;;;;;6.97;3.80;;;;;;;;;;5018374;28;20179;-68
2023/07/05 06:12:04;;;;;;;8.10;3.50;;;;;;;;;;5036380;28;20178;-69
2023/07/05 06:14:30;;;;;;;6.07;3.70;;;;;;;;;;5036145;28;20179;-69
2023/07/05 06:16:56;;;;;;;5.13;3.70;;;;;;;;;;5018177;28;20183;-69
2023/07/05 06:19:22;;;;;;;3.80;3.33;;;;;;;;;;5036040;28;20641;-68
2023/07/05 06:21:48;;;;;;;6.00;3.50;;;;;;;;;;5035823;28;20653;-68
2023/07/05 06:24:14;;;;;;;7.87;3.00;;;;;;;;;;5035624;28;20214;-68
2023/07/05 06:26:40;;;;;;;7.03;3.50;;;;;;;;;;5035659;28;20172;-69
2023/07/05 06:29:07;;;;;;;6.20;3.07;;;;;;;;;;5016864;28;20775;-69
2023/07/05 06:31:33;;;;;;;7.17;3.50;;;;;;;;;;5018032;28;20189;-68
2023/07/05 06:34:00;;;;;;;4.07;2.87;;;;;;;;;;5018513;28;20199;-68
2023/07/05 06:36:26;;;;;;;11.63;3.20;;;;;;;;;;5035595;28;20185;-69
2023/07/05 06:38:52;;;;;;;7.03;3.70;;;;;;;;;;5017851;28;20206;-68
2023/07/05 06:41:18;;;;;;;7.73;3.60;;;;;;;;;;5035352;28;20301;-68
2023/07/05 06:43:44;;;;;;;5.47;3.10;;;;;;;;;;5035198;28;20211;-68
2023/07/05 06:46:10;;;;;;;5.60;3.33;;;;;;;;;;5035386;28;20179;-69
2023/07/05 06:48:36;;;;;;;10.70;3.23;;;;;;;;;;5017456;28;20183;-68
2023/07/05 06:51:02;;;;;;;3.83;2.80;;;;;;;;;;5035415;28;20689;-68
2023/07/05 06:53:28;;;;;;;4.83;2.80;;;;;;;;;;5035614;28;20661;-68
2023/07/05 06:55:54;;;;;;;4.17;3.13;;;;;;;;;;5035309;28;20186;-68
2023/07/05 06:58:20;;;;;;;4.33;2.73;;;;;;;;;;5035165;28;20179;-68
2023/07/05 07:00:47;;;;;;;11.03;3.80;;;;;;;;;;5017332;28;20649;-68
2023/07/05 07:03:13;;;;;;;6.80;3.43;;;;;;;;;;5035117;28;20210;-68
2023/07/05 07:05:38;;;;;;;5.77;3.00;;;;;;;;;;5017256;28;20175;-68
2023/07/05 07:08:05;;;;;;;4.47;3.37;;;;;;;;;;5034897;28;20744;-68
2023/07/05 07:10:31;;;;;;;6.47;3.08;;;;;;;;;;5033976;28;20402;-68
2023/07/05 07:12:56;;;;;;;5.05;3.42;;;;;;;;;;5016006;28;20879;-68
2023/07/05 07:15:22;;;;;;;4.17;2.70;;;;;;;;;;5017127;28;20175;-68
2023/07/05 07:17:48;;;;;;;4.28;3.05;;;;;;;;;;5033612;28;20391;-68
2023/07/05 07:20:15;;;;;;;5.53;2.97;;;;;;;;;;5033844;28;20453;-68
2023/07/05 07:22:41;;;;;;;6.55;2.92;;;;;;;;;;5033502;28;20407;-69
2023/07/05 07:25:08;;;;;;;4.78;2.80;;;;;;;;;;5015864;28;20437;-68
2023/07/05 07:27:34;;;;;;;5.67;3.00;;;;;;;;;;5015891;28;20380;-68
2023/07/05 07:30:00;;;;;;;4.87;2.63;;;;;;;;;;5034902;28;20475;-68
2023/07/05 07:32:26;;;;;;;7.10;2.40;;;;;;;;;;5016826;28;20257;-68
2023/07/05 07:34:53;;;;;;;6.40;3.00;;;;;;;;;;5016737;28;20270;-68
2023/07/05 07:37:19;;;;;;;6.60;2.50;;;;;;;;;;5034401;28;20176;-69
2023/07/05 07:39:45;;;;;;;4.50;2.90;;;;;;;;;;5016527;28;20233;-69
2023/07/05 07:42:11;;;;;;;4.63;2.30;;;;;;;;;;5033883;28;20237;-68
2023/07/05 07:44:37;;;;;;;7.53;2.63;;;;;;;;;;5034623;28;20195;-68
2023/07/05 07:47:03;;;;;;;4.60;2.83;;;;;;;;;;5034737;28;20182;-68
2023/07/05 07:49:30;;;;;;;3.63;2.30;;;;;;;;;;5034486;28;20556;-69
2023/07/05 07:51:56;;;;;;;4.47;2.57;;;;;;;;;;5016762;28;20265;-69
2023/07/05 07:54:28;;;;;;;7.00;2.67;;;;;;;;;;5016776;28;20203;-69
2023/07/05 07:56:55;;;;;;;5.37;2.90;;;;;;;;;;5016955;28;20353;-68
2023/07/05 07:59:21;;;;;;;4.63;2.77;;;;;;;;;;5034625;28;20175;-68
2023/07/05 08:01:47;;;;;;;5.77;2.33;;;;;;;;;;5016344;28;20190;-69
2023/07/05 08:04:14;;;;;;;6.53;2.43;;;;;;;;;;5016052;28;20210;-69
2023/07/05 08:06:42;;;;;;;5.00;2.30;;;;;;;;;;5016274;28;20262;-68
2023/07/05 08:09:10;;;;;;;8.53;2.80;;;;;;;;;;5033972;28;20183;-69
2023/07/05 08:11:36;;;;;;;5.00;2.30;;;;;;;;;;5033817;28;20187;-68
2023/07/05 08:14:02;;;;;;;3.90;2.27;;;;;;;;;;5015956;28;20215;-68
2023/07/05 08:16:28;;;;;;;3.40;2.70;;;;;;;;;;5016081;28;20653;-68
2023/07/05 08:18:54;;;;;;;6.47;2.43;;;;;;;;;;5016075;28;20266;-68
2023/07/05 08:21:20;;;;;;;4.00;2.33;;;;;;;;;;5033692;28;20648;-69
2023/07/05 08:23:46;;;;;;;3.33;2.17;;;;;;;;;;5033601;28;20306;-69
2023/07/05 08:26:12;;;;;;;3.70;2.33;;;;;;;;;;5034012;28;20172;-68
2023/07/05 08:28:38;;;;;;;5.77;2.77;;;;;;;;;;5033562;28;20225;-69
2023/07/05 08:31:06;;;;;;;2.37;2.17;;;;;;;;;;5033574;28;20175;-69
2023/07/05 08:33:32;;;;;;;4.63;1.97;;;;;;;;;;5016210;28;20203;-69
2023/07/05 08:36:04;;;;;;;5.73;2.37;;;;;;;;;;5015628;28;20253;-68
2023/07/05 08:38:31;;;;;;;3.47;2.30;;;;;;;;;;5034079;28;20663;-69
2023/07/05 08:41:02;;;;;;;6.30;2.60;;;;;;;;;;5015638;28;20187;-68
2023/07/05 08:43:35;;;;;;;4.87;2.00;;;;;;;;;;5033035;28;20211;-68
2023/07/05 08:46:03;;;;;;;5.47;2.50;;;;;;;;;;5033327;28;20618;-68
2023/07/05 08:48:30;;;;;;;8.60;2.60;;;;;;;;;;5015535;28;20189;-68
2023/07/05 08:50:57;;;;;;;7.97;2.30;;;;;;;;;;5033686;28;20179;-68
2023/07/05 08:53:26;;;;;;;5.63;2.40;;;;;;;;;;5032600;28;20199;-68
2023/07/05 08:55:56;;;;;;;3.27;2.00;;;;;;;;;;5033161;28;20190;-69
2023/07/05 08:58:26;;;;;;;3.70;2.80;;;;;;;;;;5015485;28;20183;-69
2023/07/05 09:01:00;;;;;;;5.93;2.40;;;;;;;;;;5015425;28;20189;-69
2023/07/05 09:03:28;;;;;;;8.67;2.20;;;;;;;;;;5033013;28;20240;-69
2023/07/05 09:06:03;;;;;;;7.67;2.97;;;;;;;;;;5033013;28;20171;-69
2023/07/05 09:08:32;;;;;;;2.93;2.27;;;;;;;;;;5033241;28;20178;-69
2023/07/05 09:11:04;;;;;;;6.07;2.20;;;;;;;;;;5033064;28;20175;-68
2023/07/05 09:13:40;;;;;;;4.47;2.47;;;;;;;;;;5015289;28;20703;-69
2023/07/05 09:16:13;;;;;;;6.90;2.40;;;;;;;;;;5032953;28;20182;-68
2023/07/05 09:18:53;;;;;;;5.30;2.10;;;;;;;;;;5033289;28;20160;-68
2023/07/05 09:21:28;;;;;;;7.07;2.50;;;;;;;;;;5015178;28;20175;-68
2023/07/05 09:23:56;;;;;;;7.50;2.53;;;;;;;;;;5032911;28;20214;-68
2023/07/05 09:26:35;;;;;;;6.90;2.20;;;;;;;;;;5032894;28;20176;-67
2023/07/05 09:29:07;;;;;;;5.10;2.27;;;;;;;;;;5015166;28;20277;-68
2023/07/05 09:31:36;;;;;;;4.70;2.17;;;;;;;;;;5034131;28;20179;-67
2023/07/05 09:34:23;;;;;;;3.83;2.13;;;;;;;;;;5015109;28;20211;-67
2023/07/05 09:36:50;;;;;;;7.90;2.57;;;;;;;;;;5008298;28;20245;-66
2023/07/05 09:39:23;;;;;;;5.47;2.40;;;;;;;;;;5032988;28;20717;-67
2023/07/05 09:41:51;;;;;;;6.50;2.27;;;;;;;;;;5032874;28;20171;-68
2023/07/05 09:44:19;;;;;;;7.63;2.60;;;;;;;;;;5032604;28;20788;-67
2023/07/05 09:46:45;;;;;;;5.13;2.00;;;;;;;;;;5032931;28;20175;-67
2023/07/05 09:49:11;;;;;;;5.27;2.60;;;;;;;;;;5015170;28;20184;-69
2023/07/05 09:51:41;;;;;;;10.20;5.10;;;;;;;;;;5015382;28;20207;-67
2023/07/05 09:54:11;;;;;;;9.10;2.40;;;;;;;;;;5033377;28;20668;-67
2023/07/05 09:56:54;;;;;;;4.43;2.43;;;;;;;;;;5032960;28;20668;-66
2023/07/05 09:59:23;;;;;;;6.50;2.53;;;;;;;;;;5033378;28;20175;-67
2023/07/05 10:01:53;;;;;;;5.63;2.20;;;;;;;;;;5033022;28;20201;-68
2023/07/05 10:04:20;;;;;;;4.50;1.93;;;;;;;;;;5017007;28;20706;-67
2023/07/05 10:06:47;;;;;;;5.40;2.60;;;;;;;;;;5036666;28;20257;-67
2023/07/05 10:09:15;;;;;;;8.23;2.60;;;;;;;;;;5036231;28;20198;-67
2023/07/05 10:11:45;;;;;;;7.33;2.50;;;;;;;;;;5036067;28;20182;-66
2023/07/05 10:14:13;;;;;;;6.70;2.37;;;;;;;;;;5035913;28;20305;-67
2023/07/05 10:16:45;;;;;;;9.30;2.40;;;;;;;;;;5036209;28;20259;-67
2023/07/05 10:19:20;;;;;;;5.57;2.30;;;;;;;;;;5036107;28;20711;-67
2023/07/05 10:21:52;;;;;;;7.67;2.80;;;;;;;;;;5018100;28;20179;-67
2023/07/05 10:24:19;;;;;;;5.40;2.03;;;;;;;;;;5035926;28;20253;-67
2023/07/05 10:26:48;;;;;;;7.13;2.60;;;;;;;;;;5036661;28;20549;-67
2023/07/05 10:29:18;;;;;;;8.23;1.80;;;;;;;;;;5018079;28;20552;-68
2023/07/05 10:31:51;;;;;;;6.40;2.60;;;;;;;;;;5035661;28;20175;-67
2023/07/05 10:34:23;;;;;;;9.50;2.60;;;;;;;;;;5035944;28;20582;-68
2023/07/05 10:36:49;;;;;;;6.67;2.27;;;;;;;;;;5017673;28;20284;-68
2023/07/05 10:39:23;;;;;;;7.00;2.50;;;;;;;;;;5035480;28;20179;-68
2023/07/05 10:41:57;;;;;;;7.67;2.23;;;;;;;;;;5035380;28;20179;-68
2023/07/05 10:44:24;;;;;;;5.07;2.20;;;;;;;;;;5035084;28;20211;-67
2023/07/05 10:46:50;;;;;;;4.00;2.13;;;;;;;;;;5035408;28;20175;-67
2023/07/05 10:49:17;;;;;;;4.47;2.23;;;;;;;;;;5017497;28;20187;-68
2023/07/05 10:51:49;;;;;;;5.87;2.20;;;;;;;;;;5035473;28;20178;-67
2023/07/05 10:54:20;;;;;;;9.10;2.47;;;;;;;;;;5035296;28;20268;-67
2023/07/05 10:56:47;;;;;;;2.83;1.83;;;;;;;;;;5035197;28;20172;-68
2023/07/05 10:59:32;;;;;;;5.67;2.50;;;;;;;;;;5035098;28;20182;-67
2023/07/05 11:02:01;;;;;;;5.77;2.20;;;;;;;;;;5035035;28;20244;-67
2023/07/05 11:04:29;;;;;;;5.93;2.03;;;;;;;;;;5034991;28;20210;-67
2023/07/05 11:07:00;;;;;;;6.90;2.23;;;;;;;;;;5035400;28;20203;-71
2023/07/05 11:09:28;;;;;;;2.40;1.80;;;;;;;;;;5035444;28;20170;-67
2023/07/05 11:11:57;;;;;;;7.67;2.40;;;;;;;;;;5017038;28;20175;-67
2023/07/05 11:14:27;;;;;;;11.17;2.67;;;;;;;;;;5034852;28;20577;-67
2023/07/05 11:16:53;;;;;;;10.10;2.00;;;;;;;;;;5034478;28;20203;-68
2023/07/05 11:19:23;;;;;;;5.90;2.67;;;;;;;;;;5035387;28;20230;-67
2023/07/05 11:21:50;;;;;;;7.00;2.47;;;;;;;;;;5034977;28;20179;-67
2023/07/05 11:24:25;;;;;;;5.40;2.10;;;;;;;;;;5034537;28;20211;-67
2023/07/05 11:26:51;;;;;;;4.93;2.23;;;;;;;;;;5035054;28;20631;-66
2023/07/05 11:29:37;;;;;;;10.37;2.30;;;;;;;;;;5017054;28;20218;-67
2023/07/05 11:32:06;;;;;;;9.37;2.27;;;;;;;;;;5010024;28;20676;-67
2023/07/05 11:34:32;;;;;;;3.73;1.90;;;;;;;;;;5034529;28;20707;-67
2023/07/05 11:37:01;;;;;;;8.53;2.30;;;;;;;;;;5034407;28;20179;-67
2023/07/05 11:39:37;;;;;;;13.63;2.50;;;;;;;;;;5034342;28;20258;-67
2023/07/05 11:42:12;;;;;;;3.97;2.37;;;;;;;;;;5034496;28;20175;-68
2023/07/05 11:44:39;;;;;;;8.50;2.03;;;;;;;;;;5034264;28;20202;-67
2023/07/05 11:47:07;;;;;;;5.47;2.40;;;;;;;;;;5034207;28;20171;-67
2023/07/05 11:49:42;;;;;;;8.10;2.10;;;;;;;;;;5016475;28;20270;-66
2023/07/05 11:52:11;;;;;;;7.17;2.10;;;;;;;;;;5034604;28;20159;-67
2023/07/05 11:54:45;;;;;;;7.23;2.37;;;;;;;;;;5034022;28;20179;-67
2023/07/05 11:57:12;;;;;;;7.93;2.30;;;;;;;;;;5016831;28;20221;-67
2023/07/05 11:59:44;;;;;;;6.53;1.90;;;;;;;;;;5033939;28;20197;-67
2023/07/05 12:02:25;;;;;;;9.70;2.27;;;;;;;;;;5016110;28;20187;-67
2023/07/05 12:04:54;;;;;;;4.77;2.10;;;;;;;;;;5033826;28;20221;-67
2023/07/05 12:07:21;;;;;;;5.37;1.80;;;;;;;;;;5034275;28;20202;-68
2023/07/05 12:09:48;;;;;;;4.37;2.20;;;;;;;;;;5034249;28;20186;-67
2023/07/05 12:12:14;;;;;;;8.90;2.20;;;;;;;;;;5033844;28;20258;-67
2023/07/05 12:14:43;;;;;;;5.13;1.90;;;;;;;;;;5040542;23;20724;-64
2023/07/05 12:17:14;;;;;;;7.93;1.80;;;;;;;;;;5033902;28;20179;-64
2023/07/05 12:19:40;;;;;;;5.33;2.03;;;;;;;;;;5016307;28;20199;-64
2023/07/05 12:22:08;;;;;;;3.90;2.00;;;;;;;;;;5034089;28;20258;-64
2023/07/05 12:24:40;;;;;;;7.43;2.03;;;;;;;;;;5033879;28;20306;-65
2023/07/05 12:27:16;;;;;;;3.57;2.00;;;;;;;;;;5032998;28;20637;-64
2023/07/05 12:29:42;;;;;;;6.90;2.10;;;;;;;;;;5033701;28;20194;-65
2023/07/05 12:32:15;;;;;;;9.80;2.57;;;;;;;;;;5016080;28;20253;-64
2023/07/05 12:34:41;;;;;;;4.73;1.93;;;;;;;;;;5033919;28;20203;-65
2023/07/05 12:37:08;;;;;;;4.83;1.93;;;;;;;;;;5016248;28;20186;-65
2023/07/05 12:39:35;;;;;;;7.93;2.30;;;;;;;;;;5034408;28;20271;-64
2023/07/05 12:42:05;;;;;;;6.20;1.97;;;;;;;;;;5017525;28;20179;-64
2023/07/05 12:44:33;;;;;;;9.10;1.97;;;;;;;;;;5016905;28;20210;-63
2023/07/05 12:47:15;;;;;;;5.57;2.43;;;;;;;;;;5016820;28;20187;-64
2023/07/05 12:49:41;;;;;;;3.67;1.80;;;;;;;;;;5016395;28;20190;-64
2023/07/05 12:52:18;;;;;;;11.53;2.57;;;;;;;;;;5017056;28;20540;-64
2023/07/05 12:54:44;;;;;;;5.57;1.90;;;;;;;;;;5016593;28;20214;-64
2023/07/05 12:57:18;;;;;;;4.80;2.10;;;;;;;;;;5034351;28;20183;-64
2023/07/05 12:59:44;;;;;;;3.53;1.80;;;;;;;;;;5034596;28;20170;-64
2023/07/05 13:02:13;;;;;;;4.87;2.03;;;;;;;;;;5034768;28;20656;-64
2023/07/05 13:04:43;;;;;;;6.60;1.87;;;;;;;;;;5033621;28;20594;-64
2023/07/05 13:07:14;;;;;;;7.07;2.33;;;;;;;;;;5016638;28;20191;-65
2023/07/05 13:09:40;;;;;;;4.63;2.17;;;;;;;;;;5016258;28;20172;-65
2023/07/05 13:12:08;;;;;;;6.90;2.40;;;;;;;;;;5034132;28;20172;-66
2023/07/05 13:14:35;;;;;;;5.60;2.17;;;;;;;;;;5016259;28;20215;-65
2023/07/05 13:17:17;;;;;;;5.90;2.60;;;;;;;;;;5034739;28;20550;-66
2023/07/05 13:19:43;;;;;;;5.70;2.50;;;;;;;;;;5017153;28;20580;-66
2023/07/05 13:22:26;;;;;;;5.53;2.90;;;;;;;;;;5034258;28;20269;-66
2023/07/05 13:24:51;;;;;;;5.23;2.83;;;;;;;;;;5034316;28;20562;-66
2023/07/05 13:27:35;;;;;;;6.60;2.73;;;;;;;;;;5034317;28;20175;-65
2023/07/05 13:30:16;;;;;;;15.00;2.63;;;;;;;;;;5016606;28;20245;-65
2023/07/05 13:32:45;;;;;;;9.20;2.93;;;;;;;;;;5034658;28;20179;-66
2023/07/05 13:35:11;;;;;;;10.13;2.93;;;;;;;;;;5016026;28;20310;-66
2023/07/05 13:37:37;;;;;;;6.07;2.90;;;;;;;;;;5035272;28;20203;-66
2023/07/05 13:40:07;;;;;;;6.27;2.40;;;;;;;;;;5037368;28;20175;-65
2023/07/05 13:42:33;;;;;;;6.80;2.60;;;;;;;;;;5019816;28;20183;-65
2023/07/05 13:44:59;;;;;;;7.53;2.70;;;;;;;;;;5037441;28;20222;-66
2023/07/05 13:47:25;;;;;;;6.60;2.47;;;;;;;;;;5037227;28;20179;-66
2023/07/05 13:49:51;;;;;;;6.67;3.00;;;;;;;;;;5037390;28;20180;-66
2023/07/05 13:52:18;;;;;;;7.13;2.50;;;;;;;;;;5037238;28;20179;-66
2023/07/05 13:54:45;;;;;;;6.53;2.63;;;;;;;;;;5019276;28;20211;-66
2023/07/05 13:57:15;;;;;;;7.13;2.50;;;;;;;;;;5019190;28;20186;-65
2023/07/05 13:59:41;;;;;;;10.97;2.63;;;;;;;;;;5019242;28;20233;-65
2023/07/05 14:02:26;;;;;;;4.27;2.27;;;;;;;;;;5036946;28;20176;-65
2023/07/05 14:04:53;;;;;;;7.63;2.83;;;;;;;;;;5019120;28;20306;-66
2023/07/05 14:07:19;;;;;;;4.23;2.80;;;;;;;;;;5037178;28;20252;-65
2023/07/05 14:09:45;;;;;;;3.73;2.57;;;;;;;;;;5019482;28;20176;-66
2023/07/05 14:12:15;;;;;;;4.23;2.67;;;;;;;;;;5037090;28;20198;-65
2023/07/05 14:14:41;;;;;;;7.83;2.97;;;;;;;;;;5036839;28;20313;-66
2023/07/05 14:17:14;;;;;;;5.67;2.97;;;;;;;;;;5037027;28;20665;-65
2023/07/05 14:19:41;;;;;;;7.17;2.70;;;;;;;;;;5037032;28;20172;-65
2023/07/05 14:22:11;;;;;;;4.97;2.63;;;;;;;;;;5036964;28;20224;-66
2023/07/05 14:24:36;;;;;;;9.23;4.10;;;;;;;;;;5019261;28;20727;-65
2023/07/05 14:27:02;;;;;;;4.80;2.87;;;;;;;;;;5019072;28;20176;-65
2023/07/05 14:29:29;;;;;;;9.63;3.40;;;;;;;;;;5036824;28;20265;-66
2023/07/05 14:31:55;;;;;;;5.50;2.80;;;;;;;;;;5037051;28;20255;-65
2023/07/05 14:34:21;;;;;;;4.47;3.00;;;;;;;;;;5018777;28;20687;-65
2023/07/05 14:36:47;;;;;;;5.97;3.23;;;;;;;;;;5019010;28;20657;-66
2023/07/05 14:39:13;;;;;;;7.20;3.33;;;;;;;;;;5036793;28;20244;-65
2023/07/05 14:41:39;;;;;;;7.30;2.87;;;;;;;;;;5036642;28;20203;-66
2023/07/05 14:44:05;;;;;;;5.50;3.00;;;;;;;;;;5036220;28;20214;-65